Time;durP1;ratioP1;P1;durP2;ratioP2;P2;SDS_P1;SDS_P2;PMS_P1;PMS_P2;Temp;Humidity;BMP_temperature;BMP_pressure;BME280_temperature;BME280_humidity;BME280_pressure;Samples;Min_cycle;Max_cycle;Signal;HPM_P1;HPM_P2
2023/02/26 00:00:30;;;;;;;;;;;;;;;-0.40;100.00;100313.13;107898;1258;59672;-86
2023/02/26 00:06:24;;;;;;;;;;;;;;;-0.47;100.00;100333.70;107793;1262;73724;-86
2023/02/26 00:09:01;;;;;;;;;;;;;;;-0.52;100.00;100342.02;107920;1257;124504;-94
2023/02/26 00:18:14;;;;;;;;;;;;;;;-0.62;100.00;100352.24;108017;1256;59923;-93
2023/02/26 00:20:42;;;;;;;;;;;;;;;-0.64;100.00;100354.05;108110;1257;124384;-93
2023/02/26 00:23:17;;;;;;;;;;;;;;;-0.64;100.00;100354.16;108048;1258;67099;-93
2023/02/26 00:25:48;;;;;;;;;;;;;;;-0.66;100.00;100349.25;107670;1256;124664;-86
2023/02/26 00:28:21;;;;;;;;;;;;;;;-0.65;100.00;100356.71;107579;1258;59599;-87
2023/02/26 00:30:57;;;;;;;;;;;;;;;-0.64;100.00;100367.09;107673;1257;61066;-88
2023/02/26 00:33:51;;;;;;;;;;;;;;;-0.64;100.00;100366.96;107635;1262;124486;-96
2023/02/26 00:36:24;;;;;;;;;;;;;;;-0.63;100.00;100361.13;108153;1257;69129;-92
2023/02/26 00:39:06;;;;;;;;;;;;;;;-0.64;100.00;100363.50;108185;1258;124435;-91
2023/02/26 00:41:35;;;;;;;;;;;;;;;-0.67;100.00;100366.09;107935;1257;59058;-93
2023/02/26 00:44:11;;;;;;;;;;;;;;;-0.67;100.00;100366.58;107990;1257;124579;-95
2023/02/26 00:46:49;;;;;;;;;;;;;;;-0.68;100.00;100373.55;108094;1257;72802;-94
2023/02/26 00:49:18;;;;;;;;;;;;;;;-0.67;100.00;100376.19;107834;1257;65787;-94
2023/02/26 00:51:51;;;;;;;;;;;;;;;-0.68;100.00;100379.26;108058;1263;124385;-93
2023/02/26 00:54:20;;;;;;;;;;;;;;;-0.66;100.00;100384.23;108263;1256;59748;-93
2023/02/26 01:00:15;;;;;;;;;;;;;;;-0.64;100.00;100386.92;108723;1256;73876;-95
2023/02/26 01:02:43;;;;;;;;;;;;;;;-0.65;100.00;100384.26;108269;1254;124490;-88
2023/02/26 01:05:10;;;;;;;;;;;;;;;-0.67;100.00;100383.13;108273;1257;74577;-89
2023/02/26 01:07:43;;;;;;;;;;;;;;;-0.68;99.91;100389.06;107889;1259;124390;-93
2023/02/26 01:10:11;;;;;;;;;;;;;;;-0.69;99.80;100389.04;107937;1257;60735;-94
2023/02/26 01:12:44;;;;;;;;;;;;;;;-0.65;99.81;100400.96;108071;1257;73804;-88
2023/02/26 01:15:11;;;;;;;;;;;;;;;-0.62;99.91;100412.70;107979;1256;124288;-87
2023/02/26 01:17:42;;;;;;;;;;;;;;;-0.62;99.82;100415.12;108155;1256;73433;-86
2023/02/26 01:20:17;;;;;;;;;;;;;;;-0.61;99.85;100418.98;107848;1262;124212;-86
2023/02/26 01:22:53;;;;;;;;;;;;;;;-0.59;99.44;100423.59;108111;1256;61085;-94
2023/02/26 01:25:25;;;;;;;;;;;;;;;-0.57;99.78;100428.89;108091;1258;71795;-94
2023/02/26 01:27:59;;;;;;;;;;;;;;;-0.55;99.68;100429.39;108500;1257;67087;-95
2023/02/26 01:31:04;;;;;;;;;;;;;;;-0.52;99.44;100432.98;108470;1257;72650;-95
2023/02/26 01:37:01;;;;;;;;;;;;;;;-0.50;99.45;100439.35;108226;1258;58842;-86
2023/02/26 01:39:35;;;;;;;;;;;;;;;-0.50;99.35;100445.85;107883;1260;124739;-85
2023/02/26 01:42:25;;;;;;;;;;;;;;;-0.51;99.29;100448.38;107877;1257;67882;-86
2023/02/26 01:44:54;;;;;;;;;;;;;;;-0.54;99.17;100450.80;107763;1259;124445;-86
2023/02/26 01:50:16;;;;;;;;;;;;;;;-0.57;99.05;100457.66;107959;1257;124408;-87
2023/02/26 01:53:06;;;;;;;;;;;;;;;-0.61;98.86;100459.00;107871;1256;72961;-86
2023/02/26 01:55:36;;;;;;;;;;;;;;;-0.61;98.83;100462.08;107844;1256;65536;-86
2023/02/26 01:58:04;;;;;;;;;;;;;;;-0.62;98.88;100468.88;107726;1258;71177;-86
2023/02/26 02:00:33;;;;;;;;;;;;;;;-0.62;98.62;100473.52;107587;1262;60428;-86
2023/02/26 02:03:01;;;;;;;;;;;;;;;-0.62;98.54;100475.47;107636;1260;60825;-86
2023/02/26 02:05:32;;;;;;;;;;;;;;;-0.60;98.75;100480.24;107616;1257;72574;-86
2023/02/26 02:08:00;;;;;;;;;;;;;;;-0.58;98.68;100483.98;107730;1256;124452;-86
2023/02/26 02:10:42;;;;;;;;;;;;;;;-0.58;98.73;100488.13;107755;1254;72577;-93
2023/02/26 02:13:10;;;;;;;;;;;;;;;-0.56;98.59;100491.69;107753;1257;58841;-92
2023/02/26 02:15:56;;;;;;;;;;;;;;;-0.54;98.76;100489.77;107720;1256;124299;-93
2023/02/26 02:22:15;;;;;;;;;;;;;;;-0.52;98.71;100506.94;107911;1255;124089;-92
2023/02/26 02:25:14;;;;;;;;;;;;;;;-0.54;98.48;100522.50;107911;1257;73867;-94
2023/02/26 02:27:58;;;;;;;;;;;;;;;-0.54;98.63;100539.35;107533;1255;124269;-89
2023/02/26 02:37:38;;;;;;;;;;;;;;;-0.67;98.25;100533.23;108307;1259;65588;-94
2023/02/26 02:43:38;;;;;;;;;;;;;;;-0.64;98.40;100547.52;107916;1256;60518;-94
2023/02/26 02:49:42;;;;;;;;;;;;;;;-0.63;98.41;100549.48;108098;1259;73504;-93
2023/02/26 02:56:16;;;;;;;;;;;;;;;-0.59;98.47;100550.45;108079;1256;73569;-93
2023/02/26 03:02:00;;;;;;;;;;;;;;;-0.55;98.52;100555.69;107721;1257;124455;-88
2023/02/26 03:04:33;;;;;;;;;;;;;;;-0.53;98.47;100569.61;107860;1256;71699;-87
2023/02/26 03:07:01;;;;;;;;;;;;;;;-0.51;98.61;100571.77;107493;1256;65992;-87
2023/02/26 03:09:28;;;;;;;;;;;;;;;-0.52;98.43;100579.83;107456;1255;124404;-84
2023/02/26 03:12:07;;;;;;;;;;;;;;;-0.53;98.51;100580.30;107872;1257;61302;-83
2023/02/26 03:14:35;;;;;;;;;;;;;;;-0.52;98.45;100587.75;107816;1257;124459;-85
2023/02/26 03:17:20;;;;;;;;;;;;;;;-0.54;98.59;100600.60;107457;1258;72245;-85
2023/02/26 03:20:14;;;;;;;;;;;;;;;-0.54;98.43;100604.16;107580;1257;125024;-86
2023/02/26 03:23:01;;;;;;;;;;;;;;;-0.54;98.30;100601.91;107366;1261;73394;-84
2023/02/26 03:25:34;;;;;;;;;;;;;;;-0.56;98.35;100612.98;107306;1260;60898;-84
2023/02/26 03:28:25;;;;;;;;;;;;;;;-0.57;98.22;100614.98;106992;1264;125589;-85
2023/02/26 03:30:57;;;;;;;;;;;;;;;-0.57;98.19;100620.16;107257;1264;72616;-85
2023/02/26 03:33:37;;;;;;;;;;;;;;;-0.56;98.40;100627.47;107225;1260;124808;-85
2023/02/26 03:36:07;;;;;;;;;;;;;;;-0.55;98.34;100637.54;107280;1263;72455;-85
2023/02/26 03:38:52;;;;;;;;;;;;;;;-0.53;98.41;100636.96;107308;1260;124561;-85
2023/02/26 03:41:30;;;;;;;;;;;;;;;-0.51;98.37;100645.73;106860;1266;60471;-86
2023/02/26 03:44:06;;;;;;;;;;;;;;;-0.49;98.36;100657.06;107091;1260;124468;-85
2023/02/26 03:46:34;;;;;;;;;;;;;;;-0.49;98.45;100664.31;107023;1261;65605;-84
2023/02/26 03:49:05;;;;;;;;;;;;;;;-0.49;98.32;100663.50;107033;1260;71353;-84
2023/02/26 03:51:44;;;;;;;;;;;;;;;-0.48;98.34;100666.30;106992;1260;124316;-85
2023/02/26 03:54:43;;;;;;;;;;;;;;;-0.49;98.12;100665.88;107043;1260;60167;-85
2023/02/26 03:57:19;;;;;;;;;;;;;;;-0.50;98.35;100671.48;106921;1264;124497;-85
2023/02/26 03:59:46;;;;;;;;;;;;;;;-0.51;98.37;100678.00;107103;1256;65876;-85
2023/02/26 04:02:27;;;;;;;;;;;;;;;-0.53;98.11;100689.26;107310;1257;124998;-85
2023/02/26 04:05:03;;;;;;;;;;;;;;;-0.54;98.31;100688.29;107371;1259;60409;-84
2023/02/26 04:07:36;;;;;;;;;;;;;;;-0.54;98.34;100696.02;107250;1260;59174;-85
2023/02/26 04:10:03;;;;;;;;;;;;;;;-0.56;98.37;100689.39;107232;1257;124636;-85
2023/02/26 04:12:42;;;;;;;;;;;;;;;-0.56;98.36;100698.13;107459;1257;66775;-84
2023/02/26 04:15:11;;;;;;;;;;;;;;;-0.59;98.34;100695.36;107574;1258;124372;-85
2023/02/26 04:17:38;;;;;;;;;;;;;;;-0.63;98.18;100693.56;107522;1256;60460;-85
2023/02/26 04:20:09;;;;;;;;;;;;;;;-0.65;98.19;100700.98;107454;1257;124898;-84
2023/02/26 04:22:38;;;;;;;;;;;;;;;-0.66;98.16;100706.30;107828;1257;72630;-84
2023/02/26 04:25:11;;;;;;;;;;;;;;;-0.66;98.33;100706.98;107595;1256;66173;-84
2023/02/26 04:27:40;;;;;;;;;;;;;;;-0.66;98.27;100716.98;107614;1257;124428;-84
2023/02/26 04:30:08;;;;;;;;;;;;;;;-0.64;98.40;100717.27;107743;1257;60442;-84
2023/02/26 04:32:35;;;;;;;;;;;;;;;-0.62;98.63;100725.65;107367;1255;126060;-84
2023/02/26 04:35:02;;;;;;;;;;;;;;;-0.62;98.56;100730.35;107478;1259;73979;-83
2023/02/26 04:37:38;;;;;;;;;;;;;;;-0.62;98.55;100719.31;107710;1257;66541;-91
2023/02/26 04:40:06;;;;;;;;;;;;;;;-0.61;98.68;100722.98;107403;1256;124280;-83
2023/02/26 04:42:35;;;;;;;;;;;;;;;-0.61;98.67;100724.23;107335;1256;59379;-83
2023/02/26 04:45:03;;;;;;;;;;;;;;;-0.59;98.76;100731.05;107322;1256;126068;-84
2023/02/26 04:47:32;;;;;;;;;;;;;;;-0.57;98.84;100734.14;107754;1257;74157;-84
2023/02/26 04:49:59;;;;;;;;;;;;;;;-0.54;98.73;100740.67;107777;1257;125072;-84
2023/02/26 04:52:26;;;;;;;;;;;;;;;-0.54;98.81;100752.05;107404;1256;72686;-84
2023/02/26 04:54:53;;;;;;;;;;;;;;;-0.56;98.82;100754.16;107155;1257;60614;-82
2023/02/26 04:57:22;;;;;;;;;;;;;;;-0.59;98.96;100760.19;107438;1256;124290;-83
2023/02/26 04:59:51;;;;;;;;;;;;;;;-0.61;98.87;100755.61;108085;1256;74504;-83
2023/02/26 05:02:24;;;;;;;;;;;;;;;-0.61;99.03;100754.19;107798;1258;124576;-90
2023/02/26 05:04:51;;;;;;;;;;;;;;;-0.61;99.04;100755.93;108095;1260;73713;-83
2023/02/26 05:07:18;;;;;;;;;;;;;;;-0.60;99.13;100755.11;108204;1256;58882;-83
2023/02/26 05:09:45;;;;;;;;;;;;;;;-0.60;99.22;100763.21;108006;1259;124752;-84
2023/02/26 05:12:12;;;;;;;;;;;;;;;-0.58;99.16;100761.97;108105;1257;74844;-84
2023/02/26 05:14:39;;;;;;;;;;;;;;;-0.57;99.13;100769.42;108862;1256;124408;-84
2023/02/26 05:17:07;;;;;;;;;;;;;;;-0.56;99.01;100776.93;108993;1256;71036;-82
2023/02/26 05:19:34;;;;;;;;;;;;;;;-0.55;99.00;100773.55;108875;1256;58580;-84
2023/02/26 05:22:01;;;;;;;;;;;;;;;-0.54;98.97;100778.48;108938;1255;124536;-83
2023/02/26 05:24:28;;;;;;;;;;;;;;;-0.53;98.99;100777.84;109001;1255;74011;-83
2023/02/26 05:26:55;;;;;;;;;;;;;;;-0.51;99.06;100782.41;108711;1256;124199;-83
2023/02/26 05:29:22;;;;;;;;;;;;;;;-0.51;99.08;100783.50;108185;1255;71396;-83
2023/02/26 05:31:50;;;;;;;;;;;;;;;-0.49;99.12;100790.30;108193;1256;125265;-83
2023/02/26 05:34:17;;;;;;;;;;;;;;;-0.48;99.13;100794.02;108973;1256;60165;-83
2023/02/26 05:36:45;;;;;;;;;;;;;;;-0.46;99.02;100797.44;108985;1256;72636;-83
2023/02/26 05:39:12;;;;;;;;;;;;;;;-0.44;99.09;100812.58;108306;1256;124369;-83
2023/02/26 05:41:39;;;;;;;;;;;;;;;-0.44;98.87;100813.31;107806;1257;72493;-83
2023/02/26 05:44:07;;;;;;;;;;;;;;;-0.43;99.01;100819.20;107495;1255;124444;-83
2023/02/26 05:46:34;;;;;;;;;;;;;;;-0.42;98.85;100832.38;107550;1257;60463;-84
2023/02/26 05:49:01;;;;;;;;;;;;;;;-0.43;98.83;100840.30;108249;1256;73727;-84
2023/02/26 05:51:29;;;;;;;;;;;;;;;-0.43;98.69;100833.02;107620;1260;124810;-83
2023/02/26 05:53:56;;;;;;;;;;;;;;;-0.44;98.84;100828.09;107777;1255;73344;-83
2023/02/26 05:56:29;;;;;;;;;;;;;;;-0.46;98.92;100838.98;107839;1256;124467;-83
2023/02/26 05:58:57;;;;;;;;;;;;;;;-0.48;98.77;100841.63;107531;1256;60700;-83
2023/02/26 06:01:24;;;;;;;;;;;;;;;-0.49;98.94;100840.13;107527;1256;73895;-83
2023/02/26 06:03:51;;;;;;;;;;;;;;;-0.50;98.85;100842.17;107467;1256;124404;-83
2023/02/26 06:06:20;;;;;;;;;;;;;;;-0.50;99.00;100847.88;107662;1255;72938;-83
2023/02/26 06:08:47;;;;;;;;;;;;;;;-0.50;98.75;100848.87;107535;1256;124705;-83
2023/02/26 06:11:15;;;;;;;;;;;;;;;-0.50;98.84;100864.71;107716;1256;60431;-82
2023/02/26 06:13:49;;;;;;;;;;;;;;;-0.49;98.79;100865.48;107438;1256;125087;-82
2023/02/26 06:16:16;;;;;;;;;;;;;;;-0.50;98.83;100867.36;107394;1256;67022;-82
2023/02/26 06:18:43;;;;;;;;;;;;;;;-0.48;98.83;100875.19;107234;1257;73339;-82
2023/02/26 06:21:10;;;;;;;;;;;;;;;-0.48;98.98;100875.73;107143;1256;124369;-82
2023/02/26 06:23:39;;;;;;;;;;;;;;;-0.46;98.95;100876.55;107425;1255;60455;-82
2023/02/26 06:26:06;;;;;;;;;;;;;;;-0.45;98.88;100883.73;107474;1256;125171;-83
2023/02/26 06:28:35;;;;;;;;;;;;;;;-0.43;98.71;100896.45;107541;1254;67054;-82
2023/02/26 06:31:10;;;;;;;;;;;;;;;-0.41;98.77;100909.20;107956;1257;71249;-82
2023/02/26 06:33:37;;;;;;;;;;;;;;;-0.39;98.51;100908.09;107824;1256;124941;-82
2023/02/26 06:36:04;;;;;;;;;;;;;;;-0.38;98.60;100916.48;107620;1257;60497;-82
2023/02/26 06:38:33;;;;;;;;;;;;;;;-0.37;98.50;100919.11;107433;1255;125374;-82
2023/02/26 06:41:00;;;;;;;;;;;;;;;-0.36;98.32;100920.89;107678;1256;67041;-82
2023/02/26 06:43:28;;;;;;;;;;;;;;;-0.36;98.46;100930.05;107801;1256;71515;-81
2023/02/26 06:45:58;;;;;;;;;;;;;;;-0.34;98.35;100930.54;107595;1256;125943;-81
2023/02/26 06:48:26;;;;;;;;;;;;;;;-0.32;98.48;100930.86;107786;1256;60062;-81
2023/02/26 06:50:53;;;;;;;;;;;;;;;-0.29;98.39;100936.91;107632;1256;124934;-81
2023/02/26 06:53:23;;;;;;;;;;;;;;;-0.28;98.22;100943.23;107502;1257;65843;-87
2023/02/26 06:55:51;;;;;;;;;;;;;;;-0.26;98.17;100949.90;107293;1255;124716;-88
2023/02/26 06:58:19;;;;;;;;;;;;;;;-0.25;98.11;100957.89;107606;1256;60277;-89
2023/02/26 07:00:54;;;;;;;;;;;;;;;-0.26;98.10;100960.41;107226;1256;60432;-89
2023/02/26 07:03:21;;;;;;;;;;;;;;;-0.28;97.93;100962.52;107227;1256;124423;-89
2023/02/26 07:05:52;;;;;;;;;;;;;;;-0.28;97.90;100966.34;107567;1259;66039;-89
2023/02/26 07:08:25;;;;;;;;;;;;;;;-0.28;97.61;100975.08;107536;1256;124547;-90
2023/02/26 07:11:03;;;;;;;;;;;;;;;-0.29;97.61;100975.90;107796;1257;60183;-90
2023/02/26 07:13:40;;;;;;;;;;;;;;;-0.28;97.61;100979.06;108241;1254;60422;-90
2023/02/26 07:16:17;;;;;;;;;;;;;;;-0.26;97.17;100985.23;107163;1256;124240;-90
2023/02/26 07:18:50;;;;;;;;;;;;;;;-0.23;96.35;100988.94;107524;1256;67542;-89
2023/02/26 07:21:17;;;;;;;;;;;;;;;-0.19;96.25;100997.50;107294;1256;124676;-89
2023/02/26 07:23:44;;;;;;;;;;;;;;;-0.15;95.90;101004.83;107898;1256;59271;-89
2023/02/26 07:26:16;;;;;;;;;;;;;;;-0.11;95.66;101009.94;107416;1256;124889;-90
2023/02/26 07:28:50;;;;;;;;;;;;;;;-0.06;95.72;101018.92;107785;1257;72412;-82
2023/02/26 07:31:17;;;;;;;;;;;;;;;-0.01;95.75;101018.58;107425;1256;67059;-82
2023/02/26 07:33:44;;;;;;;;;;;;;;;0.02;95.44;101021.77;107909;1256;124317;-83
2023/02/26 07:36:11;;;;;;;;;;;;;;;0.06;95.19;101018.88;108092;1256;58988;-82
2023/02/26 07:38:44;;;;;;;;;;;;;;;0.09;95.29;101024.27;107724;1255;124602;-91
2023/02/26 07:41:12;;;;;;;;;;;;;;;0.12;94.53;101029.23;107890;1255;73571;-92
2023/02/26 07:43:41;;;;;;;;;;;;;;;0.14;94.12;101043.48;107731;1256;65818;-85
2023/02/26 07:46:08;;;;;;;;;;;;;;;0.15;93.21;101037.48;107651;1256;124235;-91
2023/02/26 07:48:35;;;;;;;;;;;;;;;0.13;92.81;101037.59;107668;1256;59799;-90
2023/02/26 07:51:06;;;;;;;;;;;;;;;0.15;92.47;101043.71;107295;1256;124627;-89
2023/02/26 07:53:33;;;;;;;;;;;;;;;0.16;92.53;101050.36;107407;1256;73639;-91
2023/02/26 07:56:05;;;;;;;;;;;;;;;0.23;92.35;101060.86;107349;1257;125801;-92
2023/02/26 07:58:35;;;;;;;;;;;;;;;0.26;91.52;101071.80;107322;1256;72591;-91
2023/02/26 08:01:02;;;;;;;;;;;;;;;0.28;91.20;101063.08;107496;1256;59714;-89
2023/02/26 08:03:37;;;;;;;;;;;;;;;0.34;91.64;101069.08;107607;1256;123560;-92
2023/02/26 08:06:07;;;;;;;;;;;;;;;0.40;90.95;101080.20;107408;1256;72579;-93
2023/02/26 08:08:34;;;;;;;;;;;;;;;0.39;90.40;101095.16;107701;1257;66908;-93
2023/02/26 08:11:01;;;;;;;;;;;;;;;0.37;89.88;101086.20;107803;1256;71160;-83
2023/02/26 08:13:28;;;;;;;;;;;;;;;0.42;90.47;101095.52;108031;1256;59219;-85
2023/02/26 08:15:55;;;;;;;;;;;;;;;0.45;90.32;101093.48;108007;1256;124363;-85
2023/02/26 08:18:23;;;;;;;;;;;;;;;0.45;90.15;101101.05;107903;1256;73869;-89
2023/02/26 08:21:24;;;;;;;;;;;;;;;0.41;89.85;101105.48;108038;1256;124349;-94
2023/02/26 08:23:53;;;;;;;;;;;;;;;0.36;89.33;101117.91;108089;1256;73731;-87
2023/02/26 08:26:23;;;;;;;;;;;;;;;0.37;89.55;101115.69;107737;1256;124793;-83
2023/02/26 08:28:50;;;;;;;;;;;;;;;0.40;89.04;101123.65;107635;1258;59914;-83
2023/02/26 08:31:22;;;;;;;;;;;;;;;0.43;88.64;101129.40;107437;1259;72661;-84
2023/02/26 08:33:49;;;;;;;;;;;;;;;0.49;88.10;101125.36;107699;1258;124379;-83
2023/02/26 08:36:16;;;;;;;;;;;;;;;0.55;87.69;101135.88;107936;1257;73246;-83
2023/02/26 08:38:53;;;;;;;;;;;;;;;0.63;87.52;101131.55;107861;1257;123616;-85
2023/02/26 08:41:31;;;;;;;;;;;;;;;0.67;86.82;101135.45;107850;1258;60469;-86
2023/02/26 08:43:58;;;;;;;;;;;;;;;0.67;86.50;101134.38;107334;1259;73837;-85
2023/02/26 08:46:26;;;;;;;;;;;;;;;0.66;87.11;101143.36;107429;1258;124518;-83
2023/02/26 08:48:53;;;;;;;;;;;;;;;0.67;87.03;101144.56;107956;1258;72590;-83
2023/02/26 08:51:20;;;;;;;;;;;;;;;0.68;86.55;101150.38;107888;1257;124700;-82
2023/02/26 08:57:25;;;;;;;;;;;;;;;0.69;85.71;101159.60;107782;1257;72581;-84
2023/02/26 08:59:52;;;;;;;;;;;;;;;0.78;86.16;101161.44;107952;1257;66891;-83
2023/02/26 09:02:19;;;;;;;;;;;;;;;0.86;86.00;101169.40;108026;1259;72418;-82
2023/02/26 09:04:47;;;;;;;;;;;;;;;0.94;86.16;101167.38;107636;1257;59718;-84
2023/02/26 09:07:15;;;;;;;;;;;;;;;1.05;85.94;101171.29;107741;1258;59980;-82
2023/02/26 09:09:43;;;;;;;;;;;;;;;1.12;85.40;101175.78;107764;1260;124312;-82
2023/02/26 09:12:16;;;;;;;;;;;;;;;1.14;85.18;101188.70;107548;1258;65892;-80
2023/02/26 09:14:44;;;;;;;;;;;;;;;1.20;84.92;101189.26;107522;1259;124291;-83
2023/02/26 09:17:11;;;;;;;;;;;;;;;1.20;83.99;101195.30;107612;1259;59244;-82
2023/02/26 09:19:38;;;;;;;;;;;;;;;1.18;83.99;101192.90;107819;1258;60170;-82
2023/02/26 09:22:11;;;;;;;;;;;;;;;1.17;83.53;101193.71;107390;1259;123762;-87
2023/02/26 09:24:46;;;;;;;;;;;;;;;1.20;83.32;101199.65;107323;1259;65626;-88
2023/02/26 09:27:13;;;;;;;;;;;;;;;1.24;83.30;101205.75;107372;1256;123912;-83
2023/02/26 09:29:43;;;;;;;;;;;;;;;1.30;83.32;101204.64;107739;1256;59750;-84
2023/02/26 09:32:17;;;;;;;;;;;;;;;1.42;83.80;101213.61;107622;1256;60449;-84
2023/02/26 09:34:44;;;;;;;;;;;;;;;1.55;83.06;101218.98;107646;1256;72592;-84
2023/02/26 09:37:11;;;;;;;;;;;;;;;1.59;82.30;101218.38;107728;1256;67196;-83
2023/02/26 09:39:38;;;;;;;;;;;;;;;1.61;81.89;101234.13;107432;1255;415926;-82
2023/02/26 09:42:06;;;;;;;;;;;;;;;1.63;81.23;101236.86;108104;1256;60281;-83
2023/02/26 09:44:35;;;;;;;;;;;;;;;1.70;81.26;101243.19;107856;1257;123578;-80
2023/02/26 09:47:40;;;;;;;;;;;;;;;;;;;;;
2023/02/26 09:50:42;;;;;;;;;;;;;;;1.72;81.44;101258.91;107854;1256;124561;-83
2023/02/26 09:53:40;;;;;;;;;;;;;;;1.74;81.55;101256.79;107502;1256;71490;-84
2023/02/26 09:56:12;;;;;;;;;;;;;;;1.78;81.55;101261.18;107182;1267;60344;-89
2023/02/26 09:58:45;;;;;;;;;;;;;;;1.88;81.95;101255.00;106600;1264;124019;-87
2023/02/26 10:01:31;;;;;;;;;;;;;;;2.03;81.96;101261.73;106972;1263;73971;-90
2023/02/26 10:04:09;;;;;;;;;;;;;;;2.01;80.89;101267.12;106957;1263;123749;-86
2023/02/26 10:06:39;;;;;;;;;;;;;;;2.04;80.67;101272.48;106938;1262;72843;-86
2023/02/26 10:12:31;;;;;;;;;;;;;;;2.33;80.77;101275.46;107277;1262;61271;-87
2023/02/26 10:15:16;;;;;;;;;;;;;;;2.40;80.53;101284.04;107098;1262;123801;-89
2023/02/26 10:18:02;;;;;;;;;;;;;;;2.53;80.37;101281.95;106988;1262;66207;-91
2023/02/26 10:20:59;;;;;;;;;;;;;;;2.59;79.55;101292.78;106973;1262;124595;-84
2023/02/26 10:23:51;;;;;;;;;;;;;;;2.56;79.52;101297.42;107005;1263;60325;-89
2023/02/26 10:26:32;;;;;;;;;;;;;;;2.55;79.39;101306.02;107314;1262;123740;-92
2023/02/26 10:29:00;;;;;;;;;;;;;;;2.46;79.07;101305.63;107154;1262;73932;-87
2023/02/26 10:31:28;;;;;;;;;;;;;;;2.49;79.07;101311.16;106924;1262;66277;-85
2023/02/26 10:34:22;;;;;;;;;;;;;;;2.47;78.72;101312.60;107242;1255;123647;-87
2023/02/26 10:37:08;;;;;;;;;;;;;;;2.46;78.79;101318.08;107478;1256;60432;-86
2023/02/26 10:39:43;;;;;;;;;;;;;;;2.52;79.06;101325.11;107233;1256;123575;-86
2023/02/26 10:42:24;;;;;;;;;;;;;;;2.66;79.52;101329.92;107300;1256;73892;-86
2023/02/26 10:45:07;;;;;;;;;;;;;;;2.65;77.19;101338.38;107196;1256;124283;-87
2023/02/26 10:47:53;;;;;;;;;;;;;;;2.47;76.77;101344.81;107548;1256;72686;-90
2023/02/26 10:50:21;;;;;;;;;;;;;;;2.45;77.16;101345.20;107482;1259;123637;-86
2023/02/26 10:52:48;;;;;;;;;;;;;;;2.47;76.98;101351.58;107412;1256;59653;-89
2023/02/26 10:55:24;;;;;;;;;;;;;;;2.52;77.25;101356.23;107447;1255;73688;-87
2023/02/26 10:57:57;;;;;;;;;;;;;;;2.63;77.18;101358.86;107275;1256;124081;-88
2023/02/26 11:00:43;;;;;;;;;;;;;;;2.74;77.03;101361.67;107202;1257;73623;-88
2023/02/26 11:03:19;;;;;;;;;;;;;;;2.82;76.62;101372.08;107339;1256;123461;-87
2023/02/26 11:05:53;;;;;;;;;;;;;;;2.88;76.43;101365.38;107606;1256;60560;-88
2023/02/26 11:08:34;;;;;;;;;;;;;;;2.99;76.94;101369.54;107537;1256;123747;-89
2023/02/26 11:11:01;;;;;;;;;;;;;;;3.05;76.52;101371.36;107805;1256;67640;-86
2023/02/26 11:13:30;;;;;;;;;;;;;;;3.09;76.60;101377.63;108071;1256;72747;-91
2023/02/26 11:16:01;;;;;;;;;;;;;;;3.03;76.60;101385.27;107720;1256;124274;-88
2023/02/26 11:18:51;;;;;;;;;;;;;;;2.93;76.56;101391.14;107678;1255;59150;-80
2023/02/26 11:21:21;;;;;;;;;;;;;;;2.83;76.99;101391.35;107858;1256;123957;-83
2023/02/26 11:23:48;;;;;;;;;;;;;;;2.83;77.35;101396.96;107884;1258;66849;-90
2023/02/26 11:26:16;;;;;;;;;;;;;;;2.80;77.32;101397.39;107820;1255;70855;-90
2023/02/26 11:28:45;;;;;;;;;;;;;;;2.72;76.90;101400.16;108171;1255;59541;-89
2023/02/26 11:31:25;;;;;;;;;;;;;;;2.63;76.51;101396.13;107978;1256;60212;-88
2023/02/26 11:33:57;;;;;;;;;;;;;;;2.61;77.09;101408.66;107598;1256;124972;-89
2023/02/26 11:36:27;;;;;;;;;;;;;;;2.59;76.33;101405.20;107711;1259;67100;-87
2023/02/26 11:39:02;;;;;;;;;;;;;;;2.59;76.84;101405.21;107721;1257;123836;-86
2023/02/26 11:41:38;;;;;;;;;;;;;;;2.70;77.24;101406.13;107599;1256;60079;-87
2023/02/26 11:44:24;;;;;;;;;;;;;;;2.78;78.15;101408.05;107635;1256;59299;-87
2023/02/26 11:46:52;;;;;;;;;;;;;;;2.87;77.93;101414.71;107812;1256;73907;-89
2023/02/26 11:49:46;;;;;;;;;;;;;;;2.89;77.98;101412.79;107828;1256;65452;-89
2023/02/26 11:52:39;;;;;;;;;;;;;;;3.00;78.05;101416.78;108057;1256;124210;-92
2023/02/26 11:55:17;;;;;;;;;;;;;;;3.08;78.15;101419.41;108040;1255;59057;-90
2023/02/26 11:57:44;;;;;;;;;;;;;;;3.14;77.17;101427.38;108073;1255;124045;-85
2023/02/26 12:00:22;;;;;;;;;;;;;;;3.14;77.33;101426.38;108080;1255;74694;-87
2023/02/26 12:03:15;;;;;;;;;;;;;;;3.20;76.97;101431.12;107824;1255;122663;-87
2023/02/26 12:05:48;;;;;;;;;;;;;;;3.23;75.60;101436.65;107730;1256;72702;-88
2023/02/26 12:08:17;;;;;;;;;;;;;;;3.10;75.30;101434.63;107534;1256;60377;-79
2023/02/26 12:11:00;;;;;;;;;;;;;;;3.06;75.21;101441.92;108926;1256;124517;-78
2023/02/26 12:13:43;;;;;;;;;;;;;;;2.97;74.53;101443.96;108818;1255;71631;-78
2023/02/26 12:16:17;;;;;;;;;;;;;;;2.87;74.68;101442.98;108342;1256;123854;-88
2023/02/26 12:19:21;;;;;;;;;;;;;;;2.88;74.65;101447.38;107384;1256;72474;-87
2023/02/26 12:21:55;;;;;;;;;;;;;;;2.89;74.80;101448.28;107348;1256;124319;-87
2023/02/26 12:24:41;;;;;;;;;;;;;;;2.92;74.79;101450.56;107772;1256;59133;-88
2023/02/26 12:27:16;;;;;;;;;;;;;;;2.97;74.83;101453.85;107908;1256;124228;-79
2023/02/26 12:29:44;;;;;;;;;;;;;;;2.98;74.56;101454.77;108108;1256;67873;-78
2023/02/26 12:32:21;;;;;;;;;;;;;;;2.96;73.92;101458.29;108130;1259;73379;-80
2023/02/26 12:35:03;;;;;;;;;;;;;;;2.92;73.91;101457.02;107248;1256;59450;-80
2023/02/26 12:37:37;;;;;;;;;;;;;;;2.99;74.31;101454.67;107448;1256;60531;-88
2023/02/26 12:40:15;;;;;;;;;;;;;;;3.07;73.61;101449.50;107466;1256;124302;-79
2023/02/26 12:42:50;;;;;;;;;;;;;;;3.08;73.13;101446.30;107777;1259;66777;-80
2023/02/26 12:45:24;;;;;;;;;;;;;;;3.06;72.57;101451.16;107880;1256;124531;-81
2023/02/26 12:48:08;;;;;;;;;;;;;;;3.03;72.62;101459.14;107688;1256;58770;-89
2023/02/26 12:50:36;;;;;;;;;;;;;;;3.03;72.66;101459.80;107786;1256;124493;-79
2023/02/26 12:53:14;;;;;;;;;;;;;;;3.02;72.33;101465.12;107732;1259;73895;-82
2023/02/26 12:55:59;;;;;;;;;;;;;;;3.05;72.52;101470.50;107550;1256;65965;-80
2023/02/26 12:58:30;;;;;;;;;;;;;;;3.02;72.29;101470.00;107814;1256;124103;-82
2023/02/26 13:01:08;;;;;;;;;;;;;;;2.97;71.86;101471.92;108874;1259;58594;-80
2023/02/26 13:03:46;;;;;;;;;;;;;;;2.92;71.87;101477.77;108793;1256;123714;-80
2023/02/26 13:06:21;;;;;;;;;;;;;;;2.86;71.32;101476.33;108865;1256;73575;-80
2023/02/26 13:08:49;;;;;;;;;;;;;;;2.77;70.72;101482.86;108673;1256;123641;-81
2023/02/26 13:11:36;;;;;;;;;;;;;;;2.70;70.95;101478.55;108607;1256;70337;-89
2023/02/26 13:14:34;;;;;;;;;;;;;;;2.71;71.12;101479.86;107781;1256;59385;-90
2023/02/26 13:17:06;;;;;;;;;;;;;;;2.72;71.14;101483.36;107249;1264;60516;-87
2023/02/26 13:19:50;;;;;;;;;;;;;;;2.74;71.18;101492.02;107113;1262;72318;-87
2023/02/26 13:22:32;;;;;;;;;;;;;;;2.75;70.75;101491.56;107475;1262;124493;-80
2023/02/26 13:25:02;;;;;;;;;;;;;;;2.79;70.59;101494.95;107212;1262;73318;-80
2023/02/26 13:27:36;;;;;;;;;;;;;;;2.81;70.49;101493.33;107403;1262;124791;-80
2023/02/26 13:30:23;;;;;;;;;;;;;;;2.83;70.18;101492.59;107444;1261;60385;-81
2023/02/26 13:32:55;;;;;;;;;;;;;;;2.86;70.09;101499.73;107318;1262;124030;-79
2023/02/26 13:35:25;;;;;;;;;;;;;;;2.87;70.33;101497.77;107324;1267;66781;-80
2023/02/26 13:37:55;;;;;;;;;;;;;;;2.88;69.62;101504.55;107396;1261;72832;-80
2023/02/26 13:40:28;;;;;;;;;;;;;;;2.88;69.72;101505.26;107535;1262;123723;-80
2023/02/26 13:43:10;;;;;;;;;;;;;;;2.85;69.42;101507.64;107796;1262;60580;-80
2023/02/26 13:45:38;;;;;;;;;;;;;;;2.85;69.73;101513.40;107530;1262;125155;-80
2023/02/26 13:48:11;;;;;;;;;;;;;;;2.87;70.21;101516.66;107707;1262;64731;-80
2023/02/26 13:50:41;;;;;;;;;;;;;;;2.91;70.16;101522.62;107594;1261;123695;-80